sensor_id;sensor_type;location;lat;lon;timestamp;P1;durP1;ratioP1;P2;durP2;ratioP2
20828;SDS011;10575;50.124;8.582;2022-11-15T00:01:26;17.92;;;11.80;;
20828;SDS011;10575;50.124;8.582;2022-11-15T00:03:51;22.30;;;12.00;;
20828;SDS011;10575;50.124;8.582;2022-11-15T00:06:17;21.35;;;11.02;;
20828;SDS011;10575;50.124;8.582;2022-11-15T00:08:43;18.60;;;11.95;;
20828;SDS011;10575;50.124;8.582;2022-11-15T00:11:09;24.48;;;12.30;;
20828;SDS011;10575;50.124;8.582;2022-11-15T00:13:36;18.00;;;10.80;;
20828;SDS011;10575;50.124;8.582;2022-11-15T00:16:02;21.42;;;11.77;;
20828;SDS011;10575;50.124;8.582;2022-11-15T00:18:28;16.85;;;10.63;;
20828;SDS011;10575;50.124;8.582;2022-11-15T00:20:55;18.65;;;10.65;;
20828;SDS011;10575;50.124;8.582;2022-11-15T00:23:21;20.02;;;10.95;;
20828;SDS011;10575;50.124;8.582;2022-11-15T00:25:46;21.52;;;12.85;;
20828;SDS011;10575;50.124;8.582;2022-11-15T00:28:19;17.13;;;10.35;;
20828;SDS011;10575;50.124;8.582;2022-11-15T00:30:45;23.55;;;11.43;;
20828;SDS011;10575;50.124;8.582;2022-11-15T00:33:10;21.35;;;12.13;;
20828;SDS011;10575;50.124;8.582;2022-11-15T00:35:36;19.73;;;12.05;;
20828;SDS011;10575;50.124;8.582;2022-11-15T00:38:01;16.38;;;9.88;;
20828;SDS011;10575;50.124;8.582;2022-11-15T00:40:27;21.67;;;10.65;;
20828;SDS011;10575;50.124;8.582;2022-11-15T00:42:53;16.65;;;10.25;;
20828;SDS011;10575;50.124;8.582;2022-11-15T00:45:19;19.73;;;10.35;;
20828;SDS011;10575;50.124;8.582;2022-11-15T00:47:44;21.35;;;10.55;;
20828;SDS011;10575;50.124;8.582;2022-11-15T00:50:11;18.40;;;10.30;;
20828;SDS011;10575;50.124;8.582;2022-11-15T00:52:37;19.38;;;11.07;;
20828;SDS011;10575;50.124;8.582;2022-11-15T00:55:02;20.17;;;10.63;;
20828;SDS011;10575;50.124;8.582;2022-11-15T00:57:28;18.42;;;10.40;;
20828;SDS011;10575;50.124;8.582;2022-11-15T00:59:54;18.58;;;10.23;;
20828;SDS011;10575;50.124;8.582;2022-11-15T01:02:19;15.02;;;9.82;;
20828;SDS011;10575;50.124;8.582;2022-11-15T01:04:45;15.82;;;10.15;;
20828;SDS011;10575;50.124;8.582;2022-11-15T01:07:10;19.85;;;10.80;;
20828;SDS011;10575;50.124;8.582;2022-11-15T01:09:36;20.52;;;10.75;;
20828;SDS011;10575;50.124;8.582;2022-11-15T01:12:01;20.40;;;10.68;;
20828;SDS011;10575;50.124;8.582;2022-11-15T01:14:27;15.40;;;10.07;;
20828;SDS011;10575;50.124;8.582;2022-11-15T01:16:53;19.17;;;11.32;;
20828;SDS011;10575;50.124;8.582;2022-11-15T01:19:18;16.70;;;10.85;;
20828;SDS011;10575;50.124;8.582;2022-11-15T01:21:44;22.52;;;11.77;;
20828;SDS011;10575;50.124;8.582;2022-11-15T01:24:13;20.38;;;11.05;;
20828;SDS011;10575;50.124;8.582;2022-11-15T01:26:38;19.05;;;11.05;;
20828;SDS011;10575;50.124;8.582;2022-11-15T01:29:04;15.38;;;9.63;;
20828;SDS011;10575;50.124;8.582;2022-11-15T01:31:29;16.35;;;9.68;;
20828;SDS011;10575;50.124;8.582;2022-11-15T01:33:55;18.13;;;11.38;;
20828;SDS011;10575;50.124;8.582;2022-11-15T01:36:21;15.98;;;10.82;;
20828;SDS011;10575;50.124;8.582;2022-11-15T01:38:47;22.38;;;10.95;;
20828;SDS011;10575;50.124;8.582;2022-11-15T01:41:25;14.07;;;9.60;;
20828;SDS011;10575;50.124;8.582;2022-11-15T01:43:53;21.70;;;10.02;;
20828;SDS011;10575;50.124;8.582;2022-11-15T01:48:46;20.88;;;11.40;;
20828;SDS011;10575;50.124;8.582;2022-11-15T01:51:15;20.10;;;11.52;;
20828;SDS011;10575;50.124;8.582;2022-11-15T01:53:42;19.98;;;10.48;;
20828;SDS011;10575;50.124;8.582;2022-11-15T01:56:13;17.33;;;10.90;;
20828;SDS011;10575;50.124;8.582;2022-11-15T01:58:41;20.90;;;11.07;;
20828;SDS011;10575;50.124;8.582;2022-11-15T02:01:09;19.20;;;11.25;;
20828;SDS011;10575;50.124;8.582;2022-11-15T02:03:41;17.13;;;10.45;;
20828;SDS011;10575;50.124;8.582;2022-11-15T02:06:15;21.13;;;10.82;;
20828;SDS011;10575;50.124;8.582;2022-11-15T02:08:41;16.55;;;9.98;;
20828;SDS011;10575;50.124;8.582;2022-11-15T02:11:07;15.20;;;9.77;;
20828;SDS011;10575;50.124;8.582;2022-11-15T02:13:33;17.55;;;10.50;;
20828;SDS011;10575;50.124;8.582;2022-11-15T02:18:38;16.80;;;9.88;;
20828;SDS011;10575;50.124;8.582;2022-11-15T02:21:29;16.42;;;9.65;;
20828;SDS011;10575;50.124;8.582;2022-11-15T02:29:28;16.27;;;9.82;;
20828;SDS011;10575;50.124;8.582;2022-11-15T02:32:23;17.45;;;9.73;;
20828;SDS011;10575;50.124;8.582;2022-11-15T02:35:07;17.90;;;9.98;;
20828;SDS011;10575;50.124;8.582;2022-11-15T02:37:48;18.13;;;10.73;;
20828;SDS011;10575;50.124;8.582;2022-11-15T02:42:54;17.20;;;10.02;;
20828;SDS011;10575;50.124;8.582;2022-11-15T02:45:43;18.38;;;11.18;;
20828;SDS011;10575;50.124;8.582;2022-11-15T02:48:13;18.45;;;11.15;;
20828;SDS011;10575;50.124;8.582;2022-11-15T02:50:40;18.35;;;10.35;;
20828;SDS011;10575;50.124;8.582;2022-11-15T02:53:08;17.85;;;10.75;;
20828;SDS011;10575;50.124;8.582;2022-11-15T02:55:34;14.02;;;9.27;;
20828;SDS011;10575;50.124;8.582;2022-11-15T03:07:06;16.38;;;9.60;;
20828;SDS011;10575;50.124;8.582;2022-11-15T03:09:54;16.25;;;9.48;;
20828;SDS011;10575;50.124;8.582;2022-11-15T03:12:27;17.83;;;9.43;;
20828;SDS011;10575;50.124;8.582;2022-11-15T03:17:37;18.77;;;10.95;;
20828;SDS011;10575;50.124;8.582;2022-11-15T03:20:16;24.90;;;11.27;;
20828;SDS011;10575;50.124;8.582;2022-11-15T03:22:43;16.08;;;9.68;;
20828;SDS011;10575;50.124;8.582;2022-11-15T03:25:13;15.07;;;9.32;;
20828;SDS011;10575;50.124;8.582;2022-11-15T03:27:49;16.05;;;10.23;;
20828;SDS011;10575;50.124;8.582;2022-11-15T03:30:17;17.80;;;10.07;;
20828;SDS011;10575;50.124;8.582;2022-11-15T03:32:53;17.58;;;10.70;;
20828;SDS011;10575;50.124;8.582;2022-11-15T03:35:22;14.82;;;8.93;;
20828;SDS011;10575;50.124;8.582;2022-11-15T03:37:59;16.02;;;10.27;;
20828;SDS011;10575;50.124;8.582;2022-11-15T03:40:49;18.48;;;9.68;;
20828;SDS011;10575;50.124;8.582;2022-11-15T03:43:30;16.58;;;10.27;;
20828;SDS011;10575;50.124;8.582;2022-11-15T03:46:26;22.15;;;11.35;;
20828;SDS011;10575;50.124;8.582;2022-11-15T03:49:17;22.83;;;11.80;;
20828;SDS011;10575;50.124;8.582;2022-11-15T03:51:49;16.77;;;10.35;;
20828;SDS011;10575;50.124;8.582;2022-11-15T03:54:15;17.60;;;10.30;;
20828;SDS011;10575;50.124;8.582;2022-11-15T03:56:40;17.27;;;8.90;;
20828;SDS011;10575;50.124;8.582;2022-11-15T03:59:06;16.13;;;9.60;;
20828;SDS011;10575;50.124;8.582;2022-11-15T04:01:31;19.15;;;10.43;;
20828;SDS011;10575;50.124;8.582;2022-11-15T04:03:57;17.67;;;11.07;;
20828;SDS011;10575;50.124;8.582;2022-11-15T04:06:22;15.15;;;9.32;;
20828;SDS011;10575;50.124;8.582;2022-11-15T04:08:48;18.80;;;9.93;;
20828;SDS011;10575;50.124;8.582;2022-11-15T04:11:13;15.75;;;10.18;;
20828;SDS011;10575;50.124;8.582;2022-11-15T04:13:39;18.40;;;10.10;;
20828;SDS011;10575;50.124;8.582;2022-11-15T04:16:04;13.75;;;9.38;;
20828;SDS011;10575;50.124;8.582;2022-11-15T04:18:30;20.85;;;10.45;;
20828;SDS011;10575;50.124;8.582;2022-11-15T04:20:55;16.55;;;10.35;;
20828;SDS011;10575;50.124;8.582;2022-11-15T04:23:39;16.15;;;10.27;;
20828;SDS011;10575;50.124;8.582;2022-11-15T04:26:23;18.83;;;10.02;;
20828;SDS011;10575;50.124;8.582;2022-11-15T04:28:49;14.75;;;10.02;;
20828;SDS011;10575;50.124;8.582;2022-11-15T04:31:33;15.40;;;9.48;;
20828;SDS011;10575;50.124;8.582;2022-11-15T04:33:59;14.68;;;8.93;;
20828;SDS011;10575;50.124;8.582;2022-11-15T04:36:25;14.55;;;8.95;;
20828;SDS011;10575;50.124;8.582;2022-11-15T04:39:09;16.73;;;8.85;;
20828;SDS011;10575;50.124;8.582;2022-11-15T04:41:34;12.70;;;8.98;;
20828;SDS011;10575;50.124;8.582;2022-11-15T04:44:00;15.48;;;9.77;;
20828;SDS011;10575;50.124;8.582;2022-11-15T04:46:26;13.73;;;8.68;;
20828;SDS011;10575;50.124;8.582;2022-11-15T04:48:52;14.25;;;9.13;;
20828;SDS011;10575;50.124;8.582;2022-11-15T04:51:18;15.18;;;8.93;;
20828;SDS011;10575;50.124;8.582;2022-11-15T04:53:44;14.25;;;8.23;;
20828;SDS011;10575;50.124;8.582;2022-11-15T04:56:10;17.33;;;10.07;;
20828;SDS011;10575;50.124;8.582;2022-11-15T04:58:36;14.50;;;9.10;;
20828;SDS011;10575;50.124;8.582;2022-11-15T05:01:08;15.90;;;9.27;;
20828;SDS011;10575;50.124;8.582;2022-11-15T05:03:35;17.63;;;10.82;;
20828;SDS011;10575;50.124;8.582;2022-11-15T05:06:20;15.02;;;9.40;;
20828;SDS011;10575;50.124;8.582;2022-11-15T05:08:45;26.45;;;11.25;;
20828;SDS011;10575;50.124;8.582;2022-11-15T05:11:11;15.95;;;9.57;;
20828;SDS011;10575;50.124;8.582;2022-11-15T05:13:36;13.50;;;8.73;;
20828;SDS011;10575;50.124;8.582;2022-11-15T05:16:02;19.00;;;10.45;;
20828;SDS011;10575;50.124;8.582;2022-11-15T05:18:28;15.07;;;9.27;;
20828;SDS011;10575;50.124;8.582;2022-11-15T05:20:53;21.48;;;9.25;;
20828;SDS011;10575;50.124;8.582;2022-11-15T05:23:19;15.00;;;9.05;;
20828;SDS011;10575;50.124;8.582;2022-11-15T05:25:44;17.88;;;9.68;;
20828;SDS011;10575;50.124;8.582;2022-11-15T05:28:10;21.13;;;9.93;;
20828;SDS011;10575;50.124;8.582;2022-11-15T05:30:35;14.75;;;9.50;;
20828;SDS011;10575;50.124;8.582;2022-11-15T05:33:01;17.70;;;10.18;;
20828;SDS011;10575;50.124;8.582;2022-11-15T05:35:39;17.05;;;9.38;;
20828;SDS011;10575;50.124;8.582;2022-11-15T05:38:10;14.48;;;9.00;;
20828;SDS011;10575;50.124;8.582;2022-11-15T05:40:36;17.67;;;10.13;;
20828;SDS011;10575;50.124;8.582;2022-11-15T05:43:02;14.35;;;9.15;;
20828;SDS011;10575;50.124;8.582;2022-11-15T05:45:28;19.35;;;11.20;;
20828;SDS011;10575;50.124;8.582;2022-11-15T05:47:54;18.17;;;10.85;;
20828;SDS011;10575;50.124;8.582;2022-11-15T05:50:22;20.58;;;9.82;;
20828;SDS011;10575;50.124;8.582;2022-11-15T05:52:48;18.40;;;10.80;;
20828;SDS011;10575;50.124;8.582;2022-11-15T05:55:14;20.67;;;11.32;;
20828;SDS011;10575;50.124;8.582;2022-11-15T05:57:40;20.10;;;10.60;;
20828;SDS011;10575;50.124;8.582;2022-11-15T06:00:06;18.88;;;10.55;;
20828;SDS011;10575;50.124;8.582;2022-11-15T06:02:33;17.10;;;9.90;;
20828;SDS011;10575;50.124;8.582;2022-11-15T06:04:58;16.08;;;9.98;;
20828;SDS011;10575;50.124;8.582;2022-11-15T06:07:24;17.58;;;9.10;;
20828;SDS011;10575;50.124;8.582;2022-11-15T06:09:49;16.55;;;9.48;;
20828;SDS011;10575;50.124;8.582;2022-11-15T06:12:15;16.33;;;9.32;;
20828;SDS011;10575;50.124;8.582;2022-11-15T06:14:40;20.17;;;10.65;;
20828;SDS011;10575;50.124;8.582;2022-11-15T06:17:06;22.20;;;10.80;;
20828;SDS011;10575;50.124;8.582;2022-11-15T06:19:31;21.50;;;11.55;;
20828;SDS011;10575;50.124;8.582;2022-11-15T06:21:58;16.25;;;10.20;;
20828;SDS011;10575;50.124;8.582;2022-11-15T06:24:26;15.40;;;9.40;;
20828;SDS011;10575;50.124;8.582;2022-11-15T06:26:52;13.82;;;9.48;;
20828;SDS011;10575;50.124;8.582;2022-11-15T06:29:17;14.63;;;10.00;;
20828;SDS011;10575;50.124;8.582;2022-11-15T06:31:43;14.88;;;10.00;;
20828;SDS011;10575;50.124;8.582;2022-11-15T06:34:09;16.42;;;9.63;;
20828;SDS011;10575;50.124;8.582;2022-11-15T06:36:35;15.35;;;9.43;;
20828;SDS011;10575;50.124;8.582;2022-11-15T06:39:01;14.02;;;8.98;;
20828;SDS011;10575;50.124;8.582;2022-11-15T06:41:28;17.30;;;9.50;;
20828;SDS011;10575;50.124;8.582;2022-11-15T06:43:53;16.52;;;10.15;;
20828;SDS011;10575;50.124;8.582;2022-11-15T06:46:19;14.95;;;8.38;;
20828;SDS011;10575;50.124;8.582;2022-11-15T06:48:44;12.50;;;9.00;;
20828;SDS011;10575;50.124;8.582;2022-11-15T06:51:10;15.98;;;9.27;;
20828;SDS011;10575;50.124;8.582;2022-11-15T06:53:35;15.05;;;8.35;;
20828;SDS011;10575;50.124;8.582;2022-11-15T06:56:05;13.07;;;8.63;;
20828;SDS011;10575;50.124;8.582;2022-11-15T06:58:31;16.20;;;8.90;;
20828;SDS011;10575;50.124;8.582;2022-11-15T07:01:01;17.45;;;9.88;;
20828;SDS011;10575;50.124;8.582;2022-11-15T07:03:28;15.93;;;9.20;;
20828;SDS011;10575;50.124;8.582;2022-11-15T07:05:54;17.10;;;9.65;;
20828;SDS011;10575;50.124;8.582;2022-11-15T07:08:21;13.60;;;8.13;;
20828;SDS011;10575;50.124;8.582;2022-11-15T07:10:48;12.07;;;8.05;;
20828;SDS011;10575;50.124;8.582;2022-11-15T07:13:14;16.20;;;9.38;;
20828;SDS011;10575;50.124;8.582;2022-11-15T07:15:39;13.93;;;9.07;;
20828;SDS011;10575;50.124;8.582;2022-11-15T07:18:05;17.75;;;8.98;;
20828;SDS011;10575;50.124;8.582;2022-11-15T07:20:31;14.68;;;8.63;;
20828;SDS011;10575;50.124;8.582;2022-11-15T07:23:00;16.33;;;7.97;;
20828;SDS011;10575;50.124;8.582;2022-11-15T07:25:26;14.45;;;8.52;;
20828;SDS011;10575;50.124;8.582;2022-11-15T07:27:58;17.25;;;9.85;;
20828;SDS011;10575;50.124;8.582;2022-11-15T07:30:25;16.30;;;9.27;;
20828;SDS011;10575;50.124;8.582;2022-11-15T07:32:58;14.70;;;9.02;;
20828;SDS011;10575;50.124;8.582;2022-11-15T07:35:25;14.77;;;8.77;;
20828;SDS011;10575;50.124;8.582;2022-11-15T07:37:55;16.25;;;9.23;;
20828;SDS011;10575;50.124;8.582;2022-11-15T07:40:26;14.60;;;9.43;;
20828;SDS011;10575;50.124;8.582;2022-11-15T07:42:58;16.92;;;9.18;;
20828;SDS011;10575;50.124;8.582;2022-11-15T07:45:27;12.48;;;7.95;;
20828;SDS011;10575;50.124;8.582;2022-11-15T07:47:53;15.98;;;9.48;;
20828;SDS011;10575;50.124;8.582;2022-11-15T07:50:20;13.40;;;7.85;;
20828;SDS011;10575;50.124;8.582;2022-11-15T07:52:46;15.25;;;8.35;;
20828;SDS011;10575;50.124;8.582;2022-11-15T07:55:12;14.48;;;8.63;;
20828;SDS011;10575;50.124;8.582;2022-11-15T07:57:38;13.60;;;8.40;;
20828;SDS011;10575;50.124;8.582;2022-11-15T08:00:04;17.55;;;10.05;;
20828;SDS011;10575;50.124;8.582;2022-11-15T08:02:30;14.35;;;8.88;;
20828;SDS011;10575;50.124;8.582;2022-11-15T08:04:56;15.25;;;8.73;;
20828;SDS011;10575;50.124;8.582;2022-11-15T08:07:21;14.88;;;8.35;;
20828;SDS011;10575;50.124;8.582;2022-11-15T08:09:47;15.20;;;8.98;;
20828;SDS011;10575;50.124;8.582;2022-11-15T08:12:13;13.23;;;8.48;;
20828;SDS011;10575;50.124;8.582;2022-11-15T08:14:39;13.80;;;8.35;;
20828;SDS011;10575;50.124;8.582;2022-11-15T08:17:05;15.98;;;9.00;;
20828;SDS011;10575;50.124;8.582;2022-11-15T08:19:30;14.77;;;8.70;;
20828;SDS011;10575;50.124;8.582;2022-11-15T08:21:56;12.75;;;7.40;;
20828;SDS011;10575;50.124;8.582;2022-11-15T08:24:21;13.65;;;8.38;;
20828;SDS011;10575;50.124;8.582;2022-11-15T08:26:47;16.35;;;9.10;;
20828;SDS011;10575;50.124;8.582;2022-11-15T08:29:12;11.02;;;7.80;;
20828;SDS011;10575;50.124;8.582;2022-11-15T08:31:38;14.63;;;7.85;;
20828;SDS011;10575;50.124;8.582;2022-11-15T08:34:04;22.35;;;9.45;;
20828;SDS011;10575;50.124;8.582;2022-11-15T08:36:30;13.82;;;9.18;;
20828;SDS011;10575;50.124;8.582;2022-11-15T08:38:56;16.33;;;8.77;;
20828;SDS011;10575;50.124;8.582;2022-11-15T08:41:30;14.35;;;8.82;;
20828;SDS011;10575;50.124;8.582;2022-11-15T08:43:58;18.52;;;8.43;;
20828;SDS011;10575;50.124;8.582;2022-11-15T08:46:24;11.00;;;7.55;;
20828;SDS011;10575;50.124;8.582;2022-11-15T08:48:49;14.75;;;9.07;;
20828;SDS011;10575;50.124;8.582;2022-11-15T08:51:15;12.95;;;7.78;;
20828;SDS011;10575;50.124;8.582;2022-11-15T08:53:41;12.93;;;8.68;;
20828;SDS011;10575;50.124;8.582;2022-11-15T08:56:08;13.48;;;7.90;;
20828;SDS011;10575;50.124;8.582;2022-11-15T08:58:34;10.18;;;7.28;;
20828;SDS011;10575;50.124;8.582;2022-11-15T09:01:00;14.60;;;8.18;;
20828;SDS011;10575;50.124;8.582;2022-11-15T09:03:25;13.73;;;8.15;;
20828;SDS011;10575;50.124;8.582;2022-11-15T09:05:55;15.57;;;7.97;;
20828;SDS011;10575;50.124;8.582;2022-11-15T09:08:21;14.00;;;8.30;;
20828;SDS011;10575;50.124;8.582;2022-11-15T09:10:47;17.80;;;10.73;;
20828;SDS011;10575;50.124;8.582;2022-11-15T09:13:13;14.07;;;8.95;;
20828;SDS011;10575;50.124;8.582;2022-11-15T09:15:39;19.25;;;10.75;;
20828;SDS011;10575;50.124;8.582;2022-11-15T09:18:05;14.50;;;9.35;;
20828;SDS011;10575;50.124;8.582;2022-11-15T09:20:31;18.73;;;10.18;;
20828;SDS011;10575;50.124;8.582;2022-11-15T09:23:03;14.57;;;9.70;;
20828;SDS011;10575;50.124;8.582;2022-11-15T09:25:29;15.25;;;10.10;;
20828;SDS011;10575;50.124;8.582;2022-11-15T09:27:55;15.13;;;9.40;;
20828;SDS011;10575;50.124;8.582;2022-11-15T09:30:23;25.42;;;9.82;;
20828;SDS011;10575;50.124;8.582;2022-11-15T09:32:49;14.13;;;8.40;;
20828;SDS011;10575;50.124;8.582;2022-11-15T09:35:16;15.80;;;9.90;;
20828;SDS011;10575;50.124;8.582;2022-11-15T09:37:42;14.88;;;9.20;;
20828;SDS011;10575;50.124;8.582;2022-11-15T09:40:11;15.77;;;9.88;;
20828;SDS011;10575;50.124;8.582;2022-11-15T09:42:52;16.20;;;9.90;;
20828;SDS011;10575;50.124;8.582;2022-11-15T09:45:30;20.30;;;10.50;;
20828;SDS011;10575;50.124;8.582;2022-11-15T09:48:27;18.77;;;10.95;;
20828;SDS011;10575;50.124;8.582;2022-11-15T09:51:03;15.32;;;10.82;;
20828;SDS011;10575;50.124;8.582;2022-11-15T09:53:32;16.08;;;10.73;;
20828;SDS011;10575;50.124;8.582;2022-11-15T09:56:11;18.55;;;10.35;;
20828;SDS011;10575;50.124;8.582;2022-11-15T10:04:09;15.93;;;9.48;;
20828;SDS011;10575;50.124;8.582;2022-11-15T10:06:36;19.02;;;9.23;;
20828;SDS011;10575;50.124;8.582;2022-11-15T10:09:12;12.10;;;7.32;;
20828;SDS011;10575;50.124;8.582;2022-11-15T10:12:08;11.93;;;7.70;;
20828;SDS011;10575;50.124;8.582;2022-11-15T10:14:35;14.07;;;7.68;;
20828;SDS011;10575;50.124;8.582;2022-11-15T10:19:54;17.27;;;8.40;;
20828;SDS011;10575;50.124;8.582;2022-11-15T10:22:45;12.57;;;6.95;;
20828;SDS011;10575;50.124;8.582;2022-11-15T10:25:19;13.25;;;7.22;;
20828;SDS011;10575;50.124;8.582;2022-11-15T10:27:54;12.52;;;7.57;;
20828;SDS011;10575;50.124;8.582;2022-11-15T10:30:23;13.05;;;7.07;;
20828;SDS011;10575;50.124;8.582;2022-11-15T10:32:55;16.55;;;7.60;;
20828;SDS011;10575;50.124;8.582;2022-11-15T10:37:51;9.00;;;5.97;;
20828;SDS011;10575;50.124;8.582;2022-11-15T10:40:28;9.25;;;6.88;;
20828;SDS011;10575;50.124;8.582;2022-11-15T10:43:27;12.55;;;7.25;;
20828;SDS011;10575;50.124;8.582;2022-11-15T10:45:46;10.55;;;6.50;;
20828;SDS011;10575;50.124;8.582;2022-11-15T10:50:38;9.52;;;6.47;;
20828;SDS011;10575;50.124;8.582;2022-11-15T10:53:12;11.75;;;7.53;;
20828;SDS011;10575;50.124;8.582;2022-11-15T10:55:49;16.50;;;7.97;;
20828;SDS011;10575;50.124;8.582;2022-11-15T10:58:30;10.40;;;7.40;;
20828;SDS011;10575;50.124;8.582;2022-11-15T11:01:10;15.38;;;8.23;;
20828;SDS011;10575;50.124;8.582;2022-11-15T11:03:37;12.75;;;7.72;;
20828;SDS011;10575;50.124;8.582;2022-11-15T11:06:04;13.75;;;8.20;;
20828;SDS011;10575;50.124;8.582;2022-11-15T11:08:32;14.75;;;7.75;;
20828;SDS011;10575;50.124;8.582;2022-11-15T11:10:59;13.07;;;7.75;;
20828;SDS011;10575;50.124;8.582;2022-11-15T11:13:31;10.82;;;7.00;;
20828;SDS011;10575;50.124;8.582;2022-11-15T11:18:51;11.05;;;6.97;;
20828;SDS011;10575;50.124;8.582;2022-11-15T11:24:28;13.30;;;6.78;;
20828;SDS011;10575;50.124;8.582;2022-11-15T11:27:18;13.30;;;7.13;;
20828;SDS011;10575;50.124;8.582;2022-11-15T11:32:48;11.85;;;6.70;;
20828;SDS011;10575;50.124;8.582;2022-11-15T11:43:56;13.77;;;6.25;;
20828;SDS011;10575;50.124;8.582;2022-11-15T11:46:43;9.85;;;5.97;;
20828;SDS011;10575;50.124;8.582;2022-11-15T11:52:23;11.75;;;6.53;;
20828;SDS011;10575;50.124;8.582;2022-11-15T11:55:17;8.98;;;5.47;;
20828;SDS011;10575;50.124;8.582;2022-11-15T12:00:41;11.18;;;5.15;;
20828;SDS011;10575;50.124;8.582;2022-11-15T12:03:35;9.80;;;5.20;;
20828;SDS011;10575;50.124;8.582;2022-11-15T12:06:33;24.42;;;12.85;;
20828;SDS011;10575;50.124;8.582;2022-11-15T12:09:12;15.73;;;8.82;;
20828;SDS011;10575;50.124;8.582;2022-11-15T12:11:58;28.75;;;16.70;;
20828;SDS011;10575;50.124;8.582;2022-11-15T12:14:33;14.00;;;7.20;;
20828;SDS011;10575;50.124;8.582;2022-11-15T12:17:12;18.50;;;11.45;;
20828;SDS011;10575;50.124;8.582;2022-11-15T12:19:41;10.38;;;6.43;;
20828;SDS011;10575;50.124;8.582;2022-11-15T12:22:19;9.88;;;6.38;;
20828;SDS011;10575;50.124;8.582;2022-11-15T12:31:10;7.05;;;4.85;;
20828;SDS011;10575;50.124;8.582;2022-11-15T12:33:36;14.18;;;7.53;;
20828;SDS011;10575;50.124;8.582;2022-11-15T12:36:05;10.50;;;6.97;;
20828;SDS011;10575;50.124;8.582;2022-11-15T12:38:59;11.52;;;6.38;;
20828;SDS011;10575;50.124;8.582;2022-11-15T12:41:30;9.85;;;6.13;;
20828;SDS011;10575;50.124;8.582;2022-11-15T12:43:57;10.05;;;6.82;;
20828;SDS011;10575;50.124;8.582;2022-11-15T12:48:56;15.00;;;6.53;;
20828;SDS011;10575;50.124;8.582;2022-11-15T12:52:03;10.00;;;7.55;;
20828;SDS011;10575;50.124;8.582;2022-11-15T12:56:56;9.25;;;6.13;;
20828;SDS011;10575;50.124;8.582;2022-11-15T13:04:50;9.77;;;6.93;;
20828;SDS011;10575;50.124;8.582;2022-11-15T13:10:00;15.68;;;7.70;;
20828;SDS011;10575;50.124;8.582;2022-11-15T13:17:38;12.68;;;6.85;;
20828;SDS011;10575;50.124;8.582;2022-11-15T13:22:43;8.30;;;6.18;;
20828;SDS011;10575;50.124;8.582;2022-11-15T13:27:49;10.38;;;6.10;;
20828;SDS011;10575;50.124;8.582;2022-11-15T13:30:19;9.52;;;6.53;;
20828;SDS011;10575;50.124;8.582;2022-11-15T13:32:55;13.95;;;6.60;;
20828;SDS011;10575;50.124;8.582;2022-11-15T13:35:24;8.65;;;5.75;;
20828;SDS011;10575;50.124;8.582;2022-11-15T13:38:04;9.68;;;5.32;;
20828;SDS011;10575;50.124;8.582;2022-11-15T13:40:34;9.15;;;5.53;;
20828;SDS011;10575;50.124;8.582;2022-11-15T13:46:33;12.35;;;7.88;;
20828;SDS011;10575;50.124;8.582;2022-11-15T13:49:02;8.85;;;5.13;;
20828;SDS011;10575;50.124;8.582;2022-11-15T13:51:49;13.05;;;6.35;;
20828;SDS011;10575;50.124;8.582;2022-11-15T13:54:19;8.02;;;5.18;;
20828;SDS011;10575;50.124;8.582;2022-11-15T13:56:53;8.48;;;5.15;;
20828;SDS011;10575;50.124;8.582;2022-11-15T13:59:26;8.40;;;4.68;;
20828;SDS011;10575;50.124;8.582;2022-11-15T14:01:57;8.40;;;5.03;;
20828;SDS011;10575;50.124;8.582;2022-11-15T14:04:26;8.27;;;5.20;;
20828;SDS011;10575;50.124;8.582;2022-11-15T14:06:57;7.82;;;5.40;;
20828;SDS011;10575;50.124;8.582;2022-11-15T14:09:40;6.43;;;4.65;;
20828;SDS011;10575;50.124;8.582;2022-11-15T14:12:22;7.10;;;5.15;;
20828;SDS011;10575;50.124;8.582;2022-11-15T14:14:50;7.40;;;4.70;;
20828;SDS011;10575;50.124;8.582;2022-11-15T14:17:35;10.70;;;5.40;;
20828;SDS011;10575;50.124;8.582;2022-11-15T14:20:18;11.50;;;5.82;;
20828;SDS011;10575;50.124;8.582;2022-11-15T14:22:53;6.35;;;4.57;;
20828;SDS011;10575;50.124;8.582;2022-11-15T14:25:27;6.80;;;4.40;;
20828;SDS011;10575;50.124;8.582;2022-11-15T14:31:01;5.47;;;4.15;;
20828;SDS011;10575;50.124;8.582;2022-11-15T14:33:32;6.95;;;4.30;;
20828;SDS011;10575;50.124;8.582;2022-11-15T14:36:04;7.68;;;3.67;;
20828;SDS011;10575;50.124;8.582;2022-11-15T14:38:37;5.72;;;4.00;;
20828;SDS011;10575;50.124;8.582;2022-11-15T14:41:02;7.97;;;3.85;;
20828;SDS011;10575;50.124;8.582;2022-11-15T14:43:28;8.02;;;4.00;;
20828;SDS011;10575;50.124;8.582;2022-11-15T14:45:53;5.45;;;3.28;;
20828;SDS011;10575;50.124;8.582;2022-11-15T14:48:19;5.78;;;3.15;;
20828;SDS011;10575;50.124;8.582;2022-11-15T14:50:45;5.65;;;3.17;;
20828;SDS011;10575;50.124;8.582;2022-11-15T14:53:17;6.07;;;3.20;;
20828;SDS011;10575;50.124;8.582;2022-11-15T14:55:43;4.53;;;3.05;;
20828;SDS011;10575;50.124;8.582;2022-11-15T14:58:09;7.03;;;3.83;;
20828;SDS011;10575;50.124;8.582;2022-11-15T15:00:35;5.47;;;3.08;;
20828;SDS011;10575;50.124;8.582;2022-11-15T15:03:03;4.88;;;2.90;;
20828;SDS011;10575;50.124;8.582;2022-11-15T15:05:35;8.10;;;5.65;;
20828;SDS011;10575;50.124;8.582;2022-11-15T15:08:08;6.18;;;4.38;;
20828;SDS011;10575;50.124;8.582;2022-11-15T15:10:35;5.05;;;3.67;;
20828;SDS011;10575;50.124;8.582;2022-11-15T15:13:03;4.57;;;3.40;;
20828;SDS011;10575;50.124;8.582;2022-11-15T15:15:31;5.38;;;3.50;;
20828;SDS011;10575;50.124;8.582;2022-11-15T15:18:01;4.25;;;2.90;;
20828;SDS011;10575;50.124;8.582;2022-11-15T15:20:28;7.40;;;3.78;;
20828;SDS011;10575;50.124;8.582;2022-11-15T15:22:54;4.65;;;3.22;;
20828;SDS011;10575;50.124;8.582;2022-11-15T15:25:24;6.20;;;3.78;;
20828;SDS011;10575;50.124;8.582;2022-11-15T15:27:53;4.63;;;3.35;;
20828;SDS011;10575;50.124;8.582;2022-11-15T15:30:19;4.28;;;2.97;;
20828;SDS011;10575;50.124;8.582;2022-11-15T15:32:45;6.50;;;3.25;;
20828;SDS011;10575;50.124;8.582;2022-11-15T15:35:12;6.45;;;2.95;;
20828;SDS011;10575;50.124;8.582;2022-11-15T15:37:38;8.10;;;3.38;;
20828;SDS011;10575;50.124;8.582;2022-11-15T15:40:08;4.47;;;3.00;;
20828;SDS011;10575;50.124;8.582;2022-11-15T15:42:40;7.70;;;3.55;;
20828;SDS011;10575;50.124;8.582;2022-11-15T15:45:06;9.18;;;3.55;;
20828;SDS011;10575;50.124;8.582;2022-11-15T15:47:33;5.43;;;3.35;;
20828;SDS011;10575;50.124;8.582;2022-11-15T15:49:58;7.18;;;3.03;;
20828;SDS011;10575;50.124;8.582;2022-11-15T15:52:24;3.67;;;2.67;;
20828;SDS011;10575;50.124;8.582;2022-11-15T15:54:50;19.83;;;12.00;;
20828;SDS011;10575;50.124;8.582;2022-11-15T15:57:15;26.50;;;20.60;;
20828;SDS011;10575;50.124;8.582;2022-11-15T15:59:41;7.72;;;5.90;;
20828;SDS011;10575;50.124;8.582;2022-11-15T16:02:08;8.43;;;4.40;;
20828;SDS011;10575;50.124;8.582;2022-11-15T16:04:36;11.10;;;5.95;;
20828;SDS011;10575;50.124;8.582;2022-11-15T16:07:02;7.90;;;5.30;;
20828;SDS011;10575;50.124;8.582;2022-11-15T16:09:28;10.70;;;5.72;;
20828;SDS011;10575;50.124;8.582;2022-11-15T16:12:13;16.27;;;5.88;;
20828;SDS011;10575;50.124;8.582;2022-11-15T16:14:39;11.05;;;5.43;;
20828;SDS011;10575;50.124;8.582;2022-11-15T16:17:04;11.40;;;5.22;;
20828;SDS011;10575;50.124;8.582;2022-11-15T16:19:30;8.52;;;4.68;;
20828;SDS011;10575;50.124;8.582;2022-11-15T16:21:56;12.07;;;7.60;;
20828;SDS011;10575;50.124;8.582;2022-11-15T16:24:21;12.25;;;6.68;;
20828;SDS011;10575;50.124;8.582;2022-11-15T16:26:47;17.20;;;7.50;;